ACT        NSW        VIC        QLD        SA        WA        TAS        NT        INFO        CALC            by VK5ZD

  Atmospheric Gas Attenuation - ITU Rec 676-11   --------------- db/100km ---------------
WA Stations Date Time Temp RH % AH g/m3 Dew Point Wind Direction Speed kph Gust kph Barometer mB Rainfall Since 9am 24GHz 47GHz 76GHz 122GHz 134GHz 241GHz
Albany Airport 03 05:00 11.8 82 8.63 8.8 6 7 1024.7 0 19.7 27.0 41.5 108.7 102.3 351.9
Argyle 03 06:40 30.8 47 14.88 18.2 0 4 1007.5 0 31.8 30.3 54.3 143.4 151.9 527.8
Badgingarra 03 05:00 14.6 69 8.63 9 41 56 1013.1 0 19.6 25.7 39.5 103.7 97.8 336.4
Barimunya 03 05:00 27.4 15 3.95 -1.5 7 11 1005.8 0 9.4 16.3 19.2 49.7 35.6 119.5
Barrow Island 03 05:00 24.3 77 17.04 20 35 41 1008.4 0 36.9 36.5 68.5 181.1 196.4 681.9
Bedout Island 03 05:00 27.2 91 23.68 25.6 24 30 1006.3 0 50.7 47.8 97.2 257.6 291.1 1011.6
Bickley 03 05:00 11.5 73 7.54 6.8 26 44 1013.1 0 17.4 24.8 36.7 96.1 87.2 298.9
Bridgetown 03 05:00 9.7 92 8.48 8.5 0 2 1023.5 0 19.5 27.3 41.9 109.8 103.0 353.8
Broome 03 05:00 28.6 85 23.89 25.8 17 24 1007.3 0 51.0 47.5 96.5 255.7 289.3 1005.3
Bunbury 03 05:00 12.2 73 7.88 7.5 11 17 1023 0 18.1 25.6 38.1 99.8 91.6 314.4
Busselton Airport 03 05:00 9.5 85 7.74 7.1 13 17 1023.5 0 17.9 26.1 38.9 101.8 93.0 318.8
Cape Leeuwin 03 05:00 15.7 64 8.56 8.9 35 44 1024.1 0 19.4 25.7 39.2 102.7 96.4 331.5
Cape Naturaliste 03 05:00 10.8 80 7.91 7.5 20 32 1022.8 0 18.2 26.0 38.9 101.9 93.7 321.4
Carnarvon 03 05:00 20.3 82 14.42 17.1 32 44 1011.5 0 31.6 33.6 60.3 159.1 168.0 582.4
Christmas Creek 03 05:00 28.4 18 5 1.8 7 9 1006.3 0 11.5 17.3 21.9 57.0 44.9 152.5
Christmas Island 03 05:00 24.1 96 21 23.4 9 13 1010.1 1.4 45.4 44.3 87.7 232.3 259.1 899.8
Cocos Island 03 05:00 26.2 81 19.94 22.7 30 43 1011 0 42.8 41.1 80.3 212.4 235.3 817.4
Collie East 03 05:00 8.7 86 7.44 6.5 4 7 1013.1 0 17.3 25.5 37.6 98.4 89.0 305.0
Coondewanna 03 05:00 21 32 5.86 3.7 0 0 1006 0 13.5 19.8 26.7 69.6 58.2 198.4
Cunderdin Airport 03 05:00 13.7 68 8.05 7.9 24 33 1019.9 0 18.4 25.3 37.9 99.4 91.8 315.4
Curtin 03 05:00 24.2 94 20.68 23.2 7 9 1006.1 0 44.7 43.4 85.8 227.0 252.8 878.1
Dalwallinu 03 05:00 13.8 72 8.58 8.8 35 52 1015.8 0 19.5 26.0 39.8 104.5 98.3 338.3
Degrussa Aerodrome 03 05:00 27 25 6.43 5.3 13 17 1006.1 0 14.5 19.3 26.6 69.4 59.8 204.9
Derby 03 05:00 26.6 79 19.89 22.7 11 13 1006.9 0 42.7 40.7 79.3 210.0 232.6 808.2
Dwellingup 03 05:00 10.8 74 7.32 6.4 20 37 1020.9 0 17.0 25.0 36.4 95.3 85.7 293.4
Eliwana Airport 03 05:00 24.6 21 4.73 0.8 2 2 1013.1 0 11.0 17.9 22.3 57.9 44.6 151.0
Esperance 03 05:00 15.3 77 10.06 11.3 7 11 1023.6 0 22.6 28.2 45.4 119.4 116.9 403.2
Esperance Airport 03 05:00 14.6 99 12.39 14.4 11 19 1023.5 0 27.7 32.6 56.1 147.7 151.5 524.1
Eucla 03 05:00 16.1 78 10.69 12.3 20 30 1021.2 0 23.9 29.0 47.5 124.9 124.1 428.5
Fitzroy Crossing 03 05:00 27.4 59 15.52 18.7 11 13 1007.2 0 33.4 32.6 59.3 156.6 167.3 581.0
Forrest 03 05:00 13.7 89 10.54 11.9 28 33 1019.1 0 23.7 29.4 48.2 126.9 125.7 433.8
Fortescue Dave Forrest 03 05:00 28.2 17 4.67 0.9 4 6 1005.9 0 10.8 17.0 21.0 54.6 41.9 141.9
Garden Island 03 05:00 14.8 68 8.61 9 22 33 1020.3 0 19.6 25.9 39.7 104.0 97.8 336.6
Geraldton Airport 03 05:00 15.9 83 11.24 13 17 22 1013.2 0 25.1 29.6 49.6 130.5 131.3 453.7
Giles* 03 06:40 31 13 4.16 -0.6 19 24 1009.6 0 9.7 16.0 19.1 49.4 36.1 121.6
Gingin Airport 03 05:00 14.8 63 7.98 7.8 19 24 1019.1 0 18.2 24.8 37.1 97.2 89.6 307.7
Golden Grove 03 05:00 19.8 48 8.2 8.5 30 41 1010.8 0 18.5 23.5 35.4 92.7 86.1 296.3
Gooseberry Hill 03 05:00 13.3 67 7.74 7.3 41 57 1013.1 0 17.8 24.7 36.6 96.0 87.8 301.2
Halls Creek 03 06:40 22.8 32 6.5 5.3 0 0 1007.1 0 14.8 20.3 28.2 73.7 63.8 218.3
Hopetoun North 03 05:00 15.1 74 9.55 10.5 13 19 1023.5 0 21.5 27.4 43.4 114.0 110.2 379.9
Iron Bridge Mine 03 05:00 25.2 32 7.45 7.3 2 2 1005.8 0 16.7 21.0 30.4 79.7 72.0 247.3
Jacup 03 05:00 7.9 84 6.9 5.4 9 11 1023.3 0 16.2 25.2 36.2 94.5 83.4 284.9
Jandakot 03 05:00 14.7 65 8.18 8.2 26 37 1019.6 0 18.6 25.2 38.0 99.5 92.3 317.3
Kalgoorlie-Boulder 03 05:00 15.6 63 8.38 8.6 33 43 1016.9 0 19.0 25.2 38.2 100.2 93.6 321.9
Kalumburu 03 06:40 27.4 89 23.42 25.4 0 0 1007.7 0 50.1 47.2 95.7 253.6 286.3 994.8
Karijini North 03 05:00 31.8 10 3.34 -3.5 30 41 1005.5 0 8.0 14.9 16.7 42.9 28.6 95.1
Karratha 03 05:00 25.3 67 15.69 18.7 26 32 1007.2 0 33.9 33.7 61.6 162.9 174.3 605.2
Katanning Rs 03 05:00 6.8 86 6.58 4.6 11 13 1022.8 0 15.6 24.9 35.3 92.3 80.2 273.6
Koodaideri Airport 03 05:00 32.3 12 4.12 -0.7 32 41 1013.1 0 9.6 15.9 18.8 48.5 35.3 119.0
Koolan Island / Koolan Central 03 05:00 27.9 87 23.53 25.5 17 24 1007.4 0 50.3 47.1 95.6 253.3 286.1 994.2
Kununurra Airport 03 06:40 25.9 93 22.52 24.7 6 6 1007.3 0 48.4 46.2 93.1 246.4 277.1 962.6
Lake Grace 03 05:00 11.8 74 7.79 7.3 15 22 1021.8 0 17.9 25.5 37.9 99.2 90.8 311.5
Lancelin (Defence) 03 05:00 14.7 73 9.19 9.9 13 19 1017.3 0 20.8 26.7 41.9 110.0 105.4 363.1
Laverton 03 05:00 18.1 48 7.42 6.9 28 35 1011.8 0 16.9 22.9 33.3 87.1 78.7 269.9
Learmonth 03 05:00 20 86 14.86 17.6 28 37 1010 0 32.6 34.4 62.4 164.8 174.9 606.6
Legendre Island 03 05:00 26.3 71 17.58 20.8 35 39 1007 0 37.9 36.6 69.0 182.6 198.9 690.8
Leinster 03 05:00 20.9 34 6.19 4.5 19 28 1008.9 0.2 14.2 20.4 27.9 72.8 62.0 211.7
Leonora Airport 03 05:00 19.5 43 7.22 6.6 20 30 1012 0 16.4 22.2 32.0 83.8 75.0 257.1
Lombadina 03 05:00 27.8 94 25.29 26.7 7 17 1006.7 0 54.1 50.8 104.8 277.7 316.0 1097.8
Mandora 03 05:00 25 100 23.02 25 7 7 1006.6 0 49.6 47.8 96.7 256.2 288.8 1003.2
Mandurah 03 05:00 14.8 64 8.11 8.1 15 22 1020.7 0 18.5 25.1 37.7 98.7 91.4 314.0
Manjimup 03 05:00 9.9 88 8.22 8 13 22 1023.6 0 19.0 26.8 40.7 106.6 99.1 340.3
Marble Bar 03 05:00 25.5 51 12.07 14.6 0 0 1005.7 0 26.3 27.6 46.7 123.1 125.6 435.2
Mardie 03 05:00 22.3 68 13.43 16.1 7 9 1008.3 0 29.4 31.0 54.3 143.4 149.4 518.0
Meekatharra 03 05:00 25.3 25 5.85 3.9 11 15 1007 0 13.3 19.0 25.3 66.1 55.2 188.2
Millendon (Swan Valley) 03 05:00 15.3 61 7.97 7.8 9 20 1019 0 18.2 24.7 36.9 96.5 88.9 305.3
Morawa Airport 03 05:00 16.3 62 8.6 9 30 43 1013.7 0 19.5 25.2 38.6 101.2 95.3 328.1
Mount Keith 03 05:00 21.6 31 5.88 3.8 15 20 1008.8 0 13.5 19.8 26.6 69.5 58.1 198.2
Mount Magnet Airport 03 05:00 21.2 32 5.93 3.9 9 11 1008.9 0 13.6 20.0 26.9 70.2 58.9 201.1
Munglinup West 03 05:00 13.1 95 10.84 12.3 9 15 1022.9 0 24.4 30.3 50.1 131.8 131.4 453.6
Newdegate 03 05:00 11.6 73 7.59 6.9 17 26 1021.6 0 17.5 25.2 37.2 97.3 88.4 303.0
Newman Airport 03 05:00 26.3 20 4.95 1.6 15 20 1005.8 0 11.5 17.6 22.3 58.0 45.6 154.5
Norseman Airport 03 05:00 14.6 77 9.64 10.6 17 24 1020.7 0 21.8 27.6 44.0 115.5 111.9 385.8
North Island 03 05:00 20.1 81 14.08 16.7 43 57 1013.9 0 30.9 33.1 59.0 155.8 163.8 567.7
Onslow Airport 03 05:00 21.6 70 13.28 15.9 22 28 1009.5 0 29.1 31.0 54.2 143.1 148.9 515.9
Paraburdoo 03 05:00 22.5 24 4.79 0.9 9 11 1006.6 0 11.2 18.2 22.9 59.4 46.1 156.0
Pearce 03 05:00 15.3 61 7.97 7.8 24 41 1019.4 0 18.2 24.7 36.9 96.6 88.9 305.4
Perth 03 05:00 15.4 60 7.88 7.7 11 24 1019.7 0 18.0 24.5 36.5 95.5 87.7 301.1
Perth Airport 03 05:00 15.2 59 7.66 7.2 32 48 1018.7 0 17.5 24.2 35.7 93.4 85.1 291.9
Port Hedland 03 05:00 24.7 77 17.43 20.4 15 19 1006.2 0 37.7 37.0 69.8 184.5 200.8 697.3
Portable Bcaa (Dbca) 03 04:50 12 76 8.1 8 6 9 1013.1 0 18.6 25.6 38.7 101.4 94.0 322.8
Portable Bcab (Dbca) 03 04:50 16.9 63 9.06 9.9 22 26 1013.1 0 20.4 25.7 40.1 105.2 100.4 346.0
Portable Btsa (Dfes) 03 04:50 19.2 64 10.55 12.4 7 7 1013.1 0 23.5 27.4 44.7 117.7 116.6 402.8
Portable Btsb (Dfes) 03 04:50 11.8 74 7.79 7.3 13 17 1013.1 0 17.9 25.2 37.5 98.3 90.1 309.3
Portable Btsd (Dfes) 03 04:50 13.9 66 7.91 7.6 20 24 1013.1 0 18.1 24.8 37.0 97.0 89.3 306.6
Portable Btse (Dfes) 03 04:50 22 71 13.78 16.5 2 6 1013.1 0 30.1 31.9 56.3 148.5 155.4 538.8
Red Rocks Point 03 05:00 17.3 76 11.2 13 33 39 1022 0 24.9 29.4 49.0 128.8 129.2 446.7
Rocky Gully South 03 05:00 8.8 89 7.75 7.1 6 9 1013.1 0 18.0 25.9 38.8 101.7 93.2 319.4
Roebourne Airport 03 05:00 25.1 52 12.04 14.6 15 17 1007.3 0 26.3 27.7 46.9 123.6 126.0 436.6
Rottnest Island 03 05:00 15.5 65 8.59 9 22 35 1019.2 0 19.5 25.6 39.2 102.7 96.6 332.4
Salmon Gums Rs 03 05:00 13.3 89 10.28 11.5 15 19 1013.1 0 23.2 28.9 47.1 123.8 122.1 421.2
Shannon 03 05:00 9.5 94 8.56 8.6 7 9 1013.1 0 19.7 27.1 41.9 109.9 103.5 355.7
Shark Bay Airport 03 05:00 19.7 83 14.09 16.7 30 44 1011.7 0 31.0 33.2 59.3 156.4 164.5 570.2
Solomon Airport 03 05:00 25.5 19 4.5 0.2 11 13 1006.2 0 10.5 17.3 21.2 55.0 41.7 140.7
Southern Cross Airport 03 05:00 14.5 70 8.71 9.1 33 43 1017.4 0 19.8 26.0 40.1 105.1 99.3 341.7
Swanbourne 03 05:00 15.5 60 7.93 7.8 24 37 1013.1 0 18.1 24.4 36.4 95.3 87.7 301.3
Troughton Island 03 06:40 29.6 82 24.34 26.2 22 24 1007.8 0 51.8 47.8 97.5 258.4 292.8 1017.6
Truscott 03 06:40 28.9 80 22.86 25.1 7 9 1007.2 0 48.7 45.2 91.0 241.1 271.4 943.4
Varanus Island 03 05:00 24.6 81 18.23 21.1 39 46 1008.6 0 39.4 38.6 73.7 194.9 213.4 741.3
Walpole North 03 05:00 11.8 75 7.89 7.5 11 15 1024.2 0 18.2 25.7 38.4 100.5 92.3 316.8
Wandering 03 05:00 11.3 74 7.55 6.8 15 17 1013.1 0 17.5 24.9 36.8 96.4 87.5 300.2
Warburton 03 06:40 26.6 33 8.31 9 22 28 1009.2 0 18.4 22.0 32.9 86.1 80.3 276.5
Wiluna Airport 03 05:00 23.4 29 6.1 4.4 13 17 1007.8 0 13.9 19.7 26.7 69.8 59.1 201.9
Wyndham Airport 03 06:40 28.9 81 23.14 25.3 9 9 1007.1 0 49.3 45.8 92.4 244.8 275.9 958.9
Yampi Sound (Defence) 03 05:00 24.8 95 21.62 23.9 0 0 1013.1 0 46.6 45.3 90.3 238.9 267.3 928.5

Last Refresh: 03-Dec-2021 07:43:24

Bureau of Meteorology